Smyrna, TN (MQY)

CessnaPCRedbird FMX


Wings of Eagles Aviation started in Smyrna (MQY) in 1998 as a small flight school. The Smyrna Airport is the third largest airport in the state of Tennessee and the busiest general aviation airport. With its longest runway being just over 8,000 feet and having its own air traffic control tower, this is the best possible training environment for all pilots. Once you learn how to fly here, you will be confident no matter where your aviation adventures take you.

Address:
278 Doug Warpoole Rd. Suite 104
Smyrna, TN 37167

Phone: (615) 355-0033

Business Hours:
Monday-Sunday 7a-10p

Wings MQY

NOAA Weather

Smyrna, TN

Last Updated on Mar 27 2017, 8:56 am CDT

Current Conditions: Partly Cloudy

NOAA Icon

Temp: 66°F

Wind: South at 8mph

Humidity: 84%

Dewpoint: 61.0°F

Your 5-Day Forecast at a Glance

Available data for KMQY from the past 2 hours
SMYRNA, TN
Metar
KMQY 271356Z 18007KT 10SM SCT022 19/16 A2999 RMK AO2 SLP068 T01890161

13:56 UTC

Wind: 180° 7kt

Visibility: 10 SM

Sky: SCT 2200 ft

Temp: 19 deg C / 66.2 deg F

Dewpoint: 16 deg C / 60.8 deg F

Pressure: 29.99 inHg

Pireps (2)
BNA UA /OV BNA320017/TM 1329/FLDURGD/TP B737/SK BKN023-TOP075/HGR LYRS ABV B100- NEG TOPS/TB -TURB
HSV UA /OV HSV360005/TM 1315/FLDURGD/TP B717/SK BKN017-TOPUNKN